createdAt,value
2023-03-16T00:00:27.942Z,9.48
2023-03-16T00:01:30.529Z,9.65
2023-03-16T00:02:33.128Z,10.20
2023-03-16T00:03:36.588Z,9.10
2023-03-16T00:04:40.017Z,9.95
2023-03-16T00:05:46.470Z,10.02
2023-03-16T00:06:49.054Z,10.25
2023-03-16T00:07:51.700Z,8.60
2023-03-16T00:08:59.025Z,10.13
2023-03-16T00:10:01.644Z,8.55
2023-03-16T00:11:04.252Z,9.45
2023-03-16T00:12:08.712Z,10.15
2023-03-16T00:13:12.438Z,8.30
2023-03-16T00:14:14.933Z,9.10
2023-03-16T00:15:17.546Z,9.93
2023-03-16T00:16:20.047Z,9.10
2023-03-16T00:17:22.564Z,8.82
2023-03-16T00:18:27.605Z,9.77
2023-03-16T00:19:30.038Z,9.15
2023-03-16T00:20:33.614Z,9.68
2023-03-16T00:21:36.307Z,9.05
2023-03-16T00:22:38.733Z,9.15
2023-03-16T00:23:42.603Z,9.55
2023-03-16T00:24:45.081Z,8.95
2023-03-16T00:25:47.602Z,8.38
2023-03-16T00:26:50.133Z,9.35
2023-03-16T00:27:52.710Z,8.85
2023-03-16T00:28:55.176Z,9.18
2023-03-16T00:29:57.886Z,8.68
2023-03-16T00:31:03.076Z,8.55
2023-03-16T00:32:05.858Z,8.75
2023-03-16T00:33:08.527Z,8.23
2023-03-16T00:34:15.432Z,9.68
2023-03-16T00:35:18.429Z,9.20
2023-03-16T00:36:22.821Z,8.80
2023-03-16T00:37:26.828Z,9.77
2023-03-16T00:38:34.993Z,8.70
2023-03-16T00:39:37.513Z,8.48
2023-03-16T00:40:40.348Z,9.60
2023-03-16T00:41:43.019Z,8.52
2023-03-16T00:42:45.628Z,8.57
2023-03-16T00:43:49.034Z,8.88
2023-03-16T00:44:57.110Z,7.72
2023-03-16T00:46:06.704Z,7.13
2023-03-16T00:47:10.310Z,7.43
2023-03-16T00:48:12.855Z,7.90
2023-03-16T00:49:15.276Z,7.57
2023-03-16T00:50:17.865Z,7.97
2023-03-16T00:51:20.509Z,7.78
2023-03-16T00:52:23.710Z,6.97
2023-03-16T00:53:26.400Z,8.40
2023-03-16T00:54:29.866Z,7.72
2023-03-16T00:55:33.488Z,8.02
2023-03-16T00:56:35.908Z,6.22
2023-03-16T00:57:38.602Z,6.93
2023-03-16T00:58:43.096Z,7.00
2023-03-16T00:59:47.004Z,7.38
2023-03-16T01:00:49.769Z,8.15
2023-03-16T01:01:55.795Z,9.05
2023-03-16T01:02:58.580Z,7.65
2023-03-16T01:04:01.810Z,7.55
2023-03-16T01:05:05.781Z,7.45
2023-03-16T01:06:10.944Z,7.18
2023-03-16T01:07:14.527Z,7.20
2023-03-16T01:08:17.085Z,8.48
2023-03-16T01:09:19.652Z,8.00
2023-03-16T01:10:22.147Z,7.55
2023-03-16T01:11:24.777Z,7.35
2023-03-16T01:12:27.932Z,6.85
2023-03-16T01:13:31.014Z,6.53
2023-03-16T01:14:37.439Z,6.65
2023-03-16T01:15:40.194Z,8.40
2023-03-16T01:16:45.933Z,9.52
2023-03-16T01:17:49.161Z,8.40
2023-03-16T01:18:52.703Z,8.77
2023-03-16T01:19:55.249Z,7.90
2023-03-16T01:20:58.008Z,6.45
2023-03-16T01:22:00.463Z,8.90
2023-03-16T01:23:03.444Z,8.20
2023-03-16T01:24:06.075Z,8.85
2023-03-16T01:25:12.125Z,7.97
2023-03-16T01:26:18.102Z,7.63
2023-03-16T01:27:22.811Z,8.85
2023-03-16T01:28:27.467Z,8.20
2023-03-16T01:29:30.469Z,7.38
2023-03-16T01:30:35.714Z,8.00
2023-03-16T01:31:39.043Z,7.68
2023-03-16T01:32:42.735Z,7.45
2023-03-16T01:33:48.070Z,6.60
2023-03-16T01:34:55.695Z,8.50
2023-03-16T01:36:01.987Z,6.90
2023-03-16T01:37:10.354Z,6.65
2023-03-16T01:38:28.911Z,7.05
2023-03-16T01:39:31.530Z,7.63
2023-03-16T01:40:34.407Z,7.47
2023-03-16T01:41:37.340Z,6.82
2023-03-16T01:42:49.866Z,7.72
2023-03-16T01:43:58.533Z,6.72
2023-03-16T01:45:05.822Z,6.85
2023-03-16T01:46:21.727Z,6.13
2023-03-16T01:47:25.440Z,8.00
2023-03-16T01:48:28.311Z,7.00
2023-03-16T01:49:35.241Z,7.57
2023-03-16T01:50:38.054Z,7.28
2023-03-16T01:52:02.317Z,8.10
2023-03-16T01:53:06.673Z,6.88
2023-03-16T01:54:15.110Z,6.80
2023-03-16T01:55:18.437Z,8.20
2023-03-16T01:56:29.422Z,6.97
2023-03-16T01:57:37.063Z,7.55
2023-03-16T01:58:40.505Z,6.93
2023-03-16T01:59:47.029Z,6.40
2023-03-16T02:00:50.099Z,7.40
2023-03-16T02:01:59.138Z,7.05
2023-03-16T02:03:13.776Z,7.22
2023-03-16T02:04:47.070Z,6.88
2023-03-16T02:05:59.594Z,7.40
2023-03-16T02:07:02.469Z,5.90
2023-03-16T02:08:07.015Z,7.00
2023-03-16T02:09:09.675Z,9.57
2023-03-16T02:10:14.364Z,9.93
2023-03-16T02:11:22.522Z,11.75
2023-03-16T02:12:38.365Z,8.75
2023-03-16T02:13:43.602Z,9.57
2023-03-16T02:14:48.441Z,8.18
2023-03-16T02:15:53.562Z,10.05
2023-03-16T02:16:57.149Z,8.98
2023-03-16T02:18:00.793Z,8.82
2023-03-16T02:19:08.448Z,8.25
2023-03-16T02:20:37.856Z,8.40
2023-03-16T02:21:56.924Z,7.60
2023-03-16T02:22:59.602Z,8.60
2023-03-16T02:24:03.344Z,7.35
2023-03-16T02:25:08.770Z,8.15
2023-03-16T02:26:33.253Z,7.97
2023-03-16T02:28:02.413Z,8.85
2023-03-16T02:29:40.585Z,8.80
2023-03-16T02:30:43.660Z,7.57
2023-03-16T02:31:47.628Z,8.43
2023-03-16T02:32:53.400Z,8.80
2023-03-16T02:33:57.764Z,7.65
2023-03-16T02:35:01.778Z,9.25
2023-03-16T02:36:04.679Z,8.25
2023-03-16T02:37:07.741Z,7.72
2023-03-16T02:38:10.678Z,8.55
2023-03-16T02:39:19.638Z,7.07
2023-03-16T02:40:29.811Z,8.35
2023-03-16T02:41:34.571Z,8.70
2023-03-16T02:42:37.195Z,8.32
2023-03-16T02:43:43.773Z,10.07
2023-03-16T02:44:57.513Z,9.18
2023-03-16T02:46:05.388Z,6.40
2023-03-16T02:47:16.152Z,8.40
2023-03-16T02:48:23.709Z,7.43
2023-03-16T02:49:27.832Z,8.23
2023-03-16T02:50:30.568Z,8.93
2023-03-16T02:51:35.635Z,8.80
2023-03-16T02:52:38.939Z,8.18
2023-03-16T02:53:42.034Z,8.75
2023-03-16T02:54:44.868Z,8.98
2023-03-16T02:55:47.677Z,8.15
2023-03-16T02:56:50.484Z,8.57
2023-03-16T02:57:53.397Z,7.95
2023-03-16T02:58:57.903Z,8.93
2023-03-16T03:00:01.571Z,8.27
2023-03-16T03:01:06.329Z,8.77
2023-03-16T03:02:11.467Z,9.10
2023-03-16T03:03:14.561Z,8.63
2023-03-16T03:04:17.330Z,9.15
2023-03-16T03:05:20.439Z,9.40
2023-03-16T03:06:24.734Z,8.52
2023-03-16T03:07:32.076Z,8.70
2023-03-16T03:08:41.125Z,8.18
2023-03-16T03:09:43.937Z,9.00
2023-03-16T03:10:46.964Z,8.70
2023-03-16T03:11:50.643Z,9.20
2023-03-16T03:12:53.246Z,9.40
2023-03-16T03:13:57.429Z,9.27
2023-03-16T03:15:02.812Z,9.48
2023-03-16T03:16:14.773Z,8.63
2023-03-16T03:17:17.406Z,8.75
2023-03-16T03:18:19.971Z,9.75
2023-03-16T03:19:23.513Z,9.50
2023-03-16T03:20:26.981Z,9.40
2023-03-16T03:21:29.683Z,9.77
2023-03-16T03:22:32.346Z,9.50
2023-03-16T03:23:37.944Z,9.05
2023-03-16T03:24:43.770Z,9.38
2023-03-16T03:25:47.986Z,9.27
2023-03-16T03:26:52.286Z,10.23
2023-03-16T03:27:56.308Z,9.73
2023-03-16T03:29:00.271Z,9.45
2023-03-16T03:30:02.888Z,9.98
2023-03-16T03:31:05.530Z,10.27
2023-03-16T03:32:08.443Z,9.52
2023-03-16T03:33:10.972Z,9.00
2023-03-16T03:34:13.521Z,10.05
2023-03-16T03:35:16.605Z,9.13
2023-03-16T03:36:19.084Z,10.27
2023-03-16T03:37:22.084Z,9.77
2023-03-16T03:38:25.849Z,9.23
2023-03-16T03:39:32.622Z,9.90
2023-03-16T03:40:35.204Z,9.48
2023-03-16T03:41:39.297Z,10.43
2023-03-16T03:42:43.266Z,9.93
2023-03-16T03:43:46.914Z,10.13
2023-03-16T03:44:52.608Z,11.30
2023-03-16T03:45:59.497Z,10.63
2023-03-16T03:47:02.192Z,10.35
2023-03-16T03:48:05.368Z,10.80
2023-03-16T03:49:09.264Z,10.85
2023-03-16T03:50:14.109Z,10.55
2023-03-16T03:51:35.999Z,9.65
2023-03-16T03:52:42.269Z,10.98
2023-03-16T03:53:44.788Z,9.70
2023-03-16T03:54:50.251Z,11.27
2023-03-16T03:55:53.738Z,11.25
2023-03-16T03:56:57.371Z,9.80
2023-03-16T03:58:00.252Z,9.73
2023-03-16T03:59:02.960Z,10.73
2023-03-16T04:00:25.821Z,10.40
2023-03-16T04:01:28.670Z,10.45
2023-03-16T04:02:31.396Z,10.45
2023-03-16T04:03:34.124Z,11.20
2023-03-16T04:04:37.242Z,11.77
2023-03-16T04:05:39.901Z,10.02
2023-03-16T04:06:43.452Z,10.70
2023-03-16T04:07:46.092Z,11.25
2023-03-16T04:08:51.144Z,12.13
2023-03-16T04:09:56.730Z,11.88
2023-03-16T04:11:07.800Z,12.50
2023-03-16T04:12:11.524Z,11.68
2023-03-16T04:13:14.308Z,11.43
2023-03-16T04:14:16.758Z,11.18
2023-03-16T04:15:20.334Z,11.93
2023-03-16T04:16:44.659Z,10.93
2023-03-16T04:17:50.181Z,10.68
2023-03-16T04:18:55.932Z,12.52
2023-03-16T04:19:59.012Z,10.85
2023-03-16T04:21:01.507Z,10.75
2023-03-16T04:22:04.078Z,10.32
2023-03-16T04:23:07.229Z,11.82
2023-03-16T04:24:14.855Z,11.55
2023-03-16T04:25:18.563Z,12.25
2023-03-16T04:26:22.153Z,12.80
2023-03-16T04:27:25.253Z,10.30
2023-03-16T04:28:27.961Z,12.02
2023-03-16T04:29:32.065Z,10.07
2023-03-16T04:30:35.589Z,10.15
2023-03-16T04:31:51.059Z,10.75
2023-03-16T04:32:54.047Z,9.77
2023-03-16T04:33:57.687Z,10.98
2023-03-16T04:35:02.020Z,11.23
2023-03-16T04:36:17.132Z,11.57
2023-03-16T04:37:20.221Z,11.48
2023-03-16T04:38:22.828Z,10.57
2023-03-16T04:39:34.872Z,10.27
2023-03-16T04:40:37.508Z,11.45
2023-03-16T04:41:47.060Z,10.00
2023-03-16T04:42:56.783Z,10.30
2023-03-16T04:43:59.428Z,10.45
2023-03-16T04:45:02.466Z,11.52
2023-03-16T04:46:06.597Z,10.60
2023-03-16T04:47:13.039Z,13.25
2023-03-16T04:48:17.106Z,11.52
2023-03-16T04:49:20.270Z,13.48
2023-03-16T04:50:22.899Z,14.18
2023-03-16T04:51:28.837Z,12.35
2023-03-16T04:52:42.386Z,10.73
2023-03-16T04:53:45.114Z,12.77
2023-03-16T04:55:00.553Z,10.18
2023-03-16T04:56:04.253Z,13.65
2023-03-16T04:57:08.518Z,12.50
2023-03-16T04:58:19.027Z,12.32
2023-03-16T04:59:24.922Z,12.13
2023-03-16T05:00:35.756Z,12.45
2023-03-16T05:01:55.122Z,11.88
2023-03-16T05:02:57.966Z,13.38
2023-03-16T05:04:00.504Z,12.60
2023-03-16T05:05:05.797Z,13.07
2023-03-16T05:06:10.091Z,12.63
2023-03-16T05:07:12.552Z,11.52
2023-03-16T05:08:18.435Z,12.38
2023-03-16T05:09:24.253Z,13.57
2023-03-16T05:10:27.371Z,12.70
2023-03-16T05:11:30.129Z,12.30
2023-03-16T05:12:35.694Z,10.80
2023-03-16T05:13:40.897Z,12.02
2023-03-16T05:14:43.484Z,11.18
2023-03-16T05:16:08.993Z,11.00
2023-03-16T05:17:15.249Z,11.43
2023-03-16T05:18:21.607Z,11.50
2023-03-16T05:19:24.664Z,10.95
2023-03-16T05:20:27.416Z,11.77
2023-03-16T05:21:37.622Z,11.75
2023-03-16T05:22:44.758Z,10.63
2023-03-16T05:23:54.747Z,11.05
2023-03-16T05:24:57.615Z,10.27
2023-03-16T05:26:01.062Z,11.23
2023-03-16T05:27:05.936Z,10.68
2023-03-16T05:28:09.333Z,11.18
2023-03-16T05:29:22.336Z,10.00
2023-03-16T05:30:26.825Z,11.55
2023-03-16T05:31:36.283Z,11.30
2023-03-16T05:32:45.097Z,12.60
2023-03-16T05:33:48.776Z,10.02
2023-03-16T05:34:54.594Z,10.85
2023-03-16T05:35:58.185Z,10.95
2023-03-16T05:37:01.070Z,11.32
2023-03-16T05:38:04.014Z,12.70
2023-03-16T05:39:08.775Z,11.38
2023-03-16T05:40:18.607Z,15.10
2023-03-16T05:41:28.408Z,20.15
2023-03-16T05:43:00.673Z,18.48
2023-03-16T05:44:05.712Z,14.30
2023-03-16T05:45:27.861Z,12.93
2023-03-16T05:46:47.172Z,8.32
2023-03-16T05:47:50.161Z,11.20
2023-03-16T05:48:53.254Z,11.50
2023-03-16T05:49:57.042Z,10.63
2023-03-16T05:51:14.270Z,10.00
2023-03-16T05:52:17.709Z,10.23
2023-03-16T05:53:20.744Z,11.25
2023-03-16T05:54:23.504Z,9.38
2023-03-16T05:55:26.091Z,10.60
2023-03-16T05:56:33.595Z,10.27
2023-03-16T05:57:36.562Z,10.25
2023-03-16T05:58:39.194Z,10.75
2023-03-16T05:59:44.020Z,10.77
2023-03-16T06:00:47.688Z,10.45
2023-03-16T06:02:04.182Z,10.38
2023-03-16T06:03:07.154Z,11.82
2023-03-16T06:04:12.244Z,14.73
2023-03-16T06:05:18.564Z,20.65
2023-03-16T06:06:23.013Z,20.00
2023-03-16T06:07:31.442Z,17.63
2023-03-16T06:08:35.119Z,18.85
2023-03-16T06:09:43.588Z,18.58
2023-03-16T06:10:50.355Z,20.42
2023-03-16T06:11:54.178Z,13.10
2023-03-16T06:12:58.466Z,13.63
2023-03-16T06:14:04.350Z,12.35
2023-03-16T06:15:08.096Z,11.43
2023-03-16T06:16:13.909Z,11.13
2023-03-16T06:17:16.592Z,11.68
2023-03-16T06:18:19.058Z,9.95
2023-03-16T06:19:21.930Z,10.60
2023-03-16T06:20:29.670Z,10.05
2023-03-16T06:21:32.691Z,10.25
2023-03-16T06:22:42.333Z,10.05
2023-03-16T06:23:45.312Z,10.13
2023-03-16T06:24:47.816Z,9.52
2023-03-16T06:25:51.249Z,9.55
2023-03-16T06:26:56.962Z,9.38
2023-03-16T06:28:05.464Z,8.95
2023-03-16T06:29:08.108Z,10.50
2023-03-16T06:30:14.289Z,9.77
2023-03-16T06:31:16.854Z,9.35
2023-03-16T06:32:22.074Z,9.70
2023-03-16T06:33:24.896Z,10.38
2023-03-16T06:34:27.631Z,10.48
2023-03-16T06:35:31.356Z,11.13
2023-03-16T06:36:54.144Z,10.93
2023-03-16T06:37:56.785Z,10.23
2023-03-16T06:39:14.752Z,11.45
2023-03-16T06:40:21.146Z,11.77
2023-03-16T06:41:23.696Z,10.50
2023-03-16T06:42:26.313Z,10.90
2023-03-16T06:43:28.956Z,11.25
2023-03-16T06:44:32.087Z,10.73
2023-03-16T06:46:45.748Z,11.30
2023-03-16T06:47:48.755Z,12.27
2023-03-16T06:48:51.546Z,11.18
2023-03-16T06:49:55.379Z,12.00
2023-03-16T06:51:01.947Z,11.40
2023-03-16T06:52:05.836Z,11.98
2023-03-16T06:53:08.275Z,11.35
2023-03-16T06:54:12.260Z,10.45
2023-03-16T06:55:16.032Z,10.73
2023-03-16T06:56:21.766Z,11.65
2023-03-16T06:57:25.778Z,10.70
2023-03-16T06:58:28.198Z,11.32
2023-03-16T06:59:31.404Z,10.52
2023-03-16T07:00:34.241Z,11.05
2023-03-16T07:01:36.943Z,11.70
2023-03-16T07:02:40.579Z,11.90
2023-03-16T07:03:44.186Z,10.77
2023-03-16T07:04:58.130Z,10.68
2023-03-16T07:06:00.736Z,11.38
2023-03-16T07:07:03.322Z,10.80
2023-03-16T07:08:06.181Z,10.45
2023-03-16T07:09:08.991Z,11.05
2023-03-16T07:10:16.220Z,11.30
2023-03-16T07:11:18.917Z,10.60
2023-03-16T07:12:21.396Z,11.18
2023-03-16T07:13:23.963Z,10.85
2023-03-16T07:14:26.479Z,11.73
2023-03-16T07:15:31.432Z,11.38
2023-03-16T07:16:36.684Z,12.05
2023-03-16T07:17:42.705Z,12.13
2023-03-16T07:18:45.444Z,12.00
2023-03-16T07:19:50.704Z,11.77
2023-03-16T07:20:54.437Z,10.73
2023-03-16T07:21:59.641Z,11.02
2023-03-16T07:23:04.729Z,11.32
2023-03-16T07:24:09.617Z,11.35
2023-03-16T07:25:14.003Z,11.05
2023-03-16T07:26:21.712Z,10.68
2023-03-16T07:27:29.940Z,11.68
2023-03-16T07:28:35.099Z,11.57
2023-03-16T07:29:38.560Z,12.05
2023-03-16T07:30:45.975Z,11.43
2023-03-16T07:31:56.218Z,11.07
2023-03-16T07:33:05.837Z,10.80
2023-03-16T07:34:08.977Z,10.85
2023-03-16T07:35:19.028Z,10.25
2023-03-16T07:36:21.738Z,9.48
2023-03-16T07:37:30.812Z,11.10
2023-03-16T07:38:35.057Z,10.65
2023-03-16T07:39:38.070Z,10.13
2023-03-16T07:40:53.059Z,11.20
2023-03-16T07:41:58.219Z,10.77
2023-03-16T07:43:27.313Z,10.10
2023-03-16T07:44:32.020Z,10.27
2023-03-16T07:45:34.712Z,10.60
2023-03-16T07:46:38.911Z,10.68
2023-03-16T07:47:41.761Z,9.93
2023-03-16T07:49:12.284Z,10.13
2023-03-16T07:50:17.035Z,10.80
2023-03-16T07:51:21.571Z,10.20
2023-03-16T07:52:25.607Z,11.48
2023-03-16T07:53:28.153Z,10.27
2023-03-16T07:54:47.103Z,9.52
2023-03-16T07:55:49.619Z,10.85
2023-03-16T07:56:53.783Z,10.38
2023-03-16T07:58:11.672Z,8.95
2023-03-16T07:59:17.043Z,8.88
2023-03-16T08:00:23.935Z,9.45
2023-03-16T08:01:26.618Z,9.35
2023-03-16T08:02:29.360Z,10.00
2023-03-16T08:03:32.333Z,9.52
2023-03-16T08:04:35.059Z,10.25
2023-03-16T08:05:38.790Z,9.07
2023-03-16T08:06:47.962Z,8.90
2023-03-16T08:07:51.535Z,9.57
2023-03-16T08:08:59.157Z,9.40
2023-03-16T08:10:10.078Z,8.98
2023-03-16T08:11:24.064Z,9.52
2023-03-16T08:12:34.058Z,9.50
2023-03-16T08:13:37.518Z,10.00
2023-03-16T08:14:40.167Z,7.95
2023-03-16T08:15:58.618Z,8.68
2023-03-16T08:17:21.767Z,8.05
2023-03-16T08:18:26.725Z,7.95
2023-03-16T08:19:30.112Z,9.10
2023-03-16T08:20:35.710Z,8.55
2023-03-16T08:21:53.187Z,8.60
2023-03-16T08:23:00.778Z,7.93
2023-03-16T08:24:11.102Z,7.57
2023-03-16T08:25:15.652Z,8.10
2023-03-16T08:26:28.036Z,7.20
2023-03-16T08:27:33.772Z,7.55
2023-03-16T08:28:40.380Z,7.10
2023-03-16T08:29:46.623Z,6.40
2023-03-16T08:30:53.824Z,5.82
2023-03-16T08:32:15.056Z,5.15
2023-03-16T08:33:23.003Z,6.57
2023-03-16T08:34:28.078Z,7.00
2023-03-16T08:35:31.317Z,6.50
2023-03-16T08:36:33.875Z,6.47
2023-03-16T08:37:36.904Z,6.97
2023-03-16T08:39:03.868Z,6.38
2023-03-16T08:40:14.000Z,5.15
2023-03-16T08:41:17.467Z,4.90
2023-03-16T08:42:23.686Z,5.78
2023-03-16T08:43:32.735Z,5.03
2023-03-16T08:44:36.532Z,5.28
2023-03-16T08:45:39.101Z,5.38
2023-03-16T08:46:42.682Z,4.97
2023-03-16T08:47:45.664Z,5.32
2023-03-16T08:48:50.362Z,5.05
2023-03-16T08:49:52.943Z,5.13
2023-03-16T08:50:55.530Z,4.95
2023-03-16T08:51:58.046Z,4.75
2023-03-16T08:53:01.213Z,5.70
2023-03-16T08:54:03.772Z,5.40
2023-03-16T08:55:07.350Z,4.80
2023-03-16T08:56:12.707Z,5.68
2023-03-16T08:57:15.634Z,4.40
2023-03-16T08:58:18.135Z,5.05
2023-03-16T08:59:29.841Z,5.40
2023-03-16T09:00:33.267Z,4.68
2023-03-16T09:01:35.872Z,5.25
2023-03-16T09:02:40.861Z,5.03
2023-03-16T09:03:45.866Z,4.80
2023-03-16T09:04:49.846Z,4.97
2023-03-16T09:05:52.797Z,5.20
2023-03-16T09:07:08.021Z,5.72
2023-03-16T09:08:12.881Z,4.50
2023-03-16T09:09:15.649Z,4.55
2023-03-16T09:10:19.047Z,4.43
2023-03-16T09:11:22.275Z,5.00
2023-03-16T09:12:25.237Z,4.55
2023-03-16T09:13:28.825Z,5.47
2023-03-16T09:14:31.450Z,4.82
2023-03-16T09:15:34.057Z,4.32
2023-03-16T09:16:36.780Z,4.18
2023-03-16T09:17:41.812Z,4.25
2023-03-16T09:18:44.898Z,4.53
2023-03-16T09:19:51.661Z,4.30
2023-03-16T09:21:02.407Z,3.85
2023-03-16T09:22:05.027Z,4.07
2023-03-16T09:23:07.669Z,3.58
2023-03-16T09:24:10.394Z,3.15
2023-03-16T09:25:12.990Z,3.83
2023-03-16T09:26:16.070Z,2.95
2023-03-16T09:27:19.307Z,3.65
2023-03-16T09:28:22.299Z,3.92
2023-03-16T09:29:25.064Z,3.67
2023-03-16T09:30:28.447Z,4.50
2023-03-16T09:31:31.233Z,2.85
2023-03-16T09:32:35.253Z,3.30
2023-03-16T09:33:37.764Z,3.05
2023-03-16T09:34:40.359Z,3.20
2023-03-16T09:35:45.193Z,2.45
2023-03-16T09:36:47.738Z,3.08
2023-03-16T09:38:04.815Z,2.92
2023-03-16T09:39:08.074Z,3.58
2023-03-16T09:40:21.949Z,3.35
2023-03-16T09:41:33.588Z,3.42
2023-03-16T09:42:46.266Z,2.65
2023-03-16T09:43:55.577Z,2.50
2023-03-16T09:45:06.948Z,2.55
2023-03-16T09:46:36.121Z,2.45
2023-03-16T09:47:38.931Z,2.75
2023-03-16T09:48:42.614Z,3.42
2023-03-16T09:49:47.678Z,2.70
2023-03-16T09:50:51.386Z,2.05
2023-03-16T09:52:00.702Z,2.90
2023-03-16T09:53:19.151Z,2.53
2023-03-16T09:54:44.063Z,2.90
2023-03-16T09:55:50.173Z,2.53
2023-03-16T09:56:52.956Z,1.98
2023-03-16T09:57:57.443Z,2.30
2023-03-16T09:58:59.964Z,2.40
2023-03-16T10:00:22.118Z,2.60
2023-03-16T10:02:12.859Z,2.58
2023-03-16T10:03:31.427Z,2.03
2023-03-16T10:05:03.527Z,2.75
2023-03-16T10:06:10.089Z,2.42
2023-03-16T10:07:44.594Z,2.63
2023-03-16T10:08:55.597Z,2.50
2023-03-16T10:10:02.871Z,2.03
2023-03-16T10:11:28.529Z,2.60
2023-03-16T10:12:35.304Z,2.55
2023-03-16T10:14:01.314Z,2.97
2023-03-16T10:15:12.281Z,2.55
2023-03-16T10:16:37.479Z,2.95
2023-03-16T10:17:52.754Z,3.17
2023-03-16T10:19:34.501Z,3.03
2023-03-16T10:20:37.968Z,2.80
2023-03-16T10:21:41.754Z,2.67
2023-03-16T10:22:46.593Z,2.47
2023-03-16T10:23:49.916Z,2.30
2023-03-16T10:25:16.689Z,2.17
2023-03-16T10:26:24.145Z,1.98
2023-03-16T10:27:33.291Z,2.60
2023-03-16T10:28:37.726Z,2.28
2023-03-16T10:29:40.431Z,2.05
2023-03-16T10:30:44.033Z,1.90
2023-03-16T10:31:47.512Z,2.13
2023-03-16T10:32:50.352Z,2.08
2023-03-16T10:33:58.495Z,2.53
2023-03-16T10:35:08.295Z,2.03
2023-03-16T10:36:33.528Z,1.85
2023-03-16T10:37:37.529Z,2.25
2023-03-16T10:38:46.900Z,2.25
2023-03-16T10:39:49.720Z,2.50
2023-03-16T10:40:53.295Z,2.92
2023-03-16T10:41:57.365Z,2.53
2023-03-16T10:43:13.639Z,2.40
2023-03-16T10:44:22.237Z,2.70
2023-03-16T10:45:34.140Z,2.58
2023-03-16T10:46:40.105Z,2.85
2023-03-16T10:47:42.878Z,2.85
2023-03-16T10:48:59.798Z,2.55
2023-03-16T10:50:20.705Z,3.17
2023-03-16T10:51:26.492Z,3.42
2023-03-16T10:52:40.465Z,3.80
2023-03-16T10:53:44.668Z,3.25
2023-03-16T10:54:57.530Z,3.45
2023-03-16T10:56:02.312Z,4.30
2023-03-16T10:57:21.503Z,3.45
2023-03-16T10:58:26.686Z,3.80
2023-03-16T10:59:29.748Z,4.82
2023-03-16T11:00:43.474Z,4.60
2023-03-16T11:01:50.273Z,4.43
2023-03-16T11:02:56.978Z,5.00
2023-03-16T11:04:00.220Z,5.47
2023-03-16T11:05:33.487Z,5.53
2023-03-16T11:06:36.463Z,4.68
2023-03-16T11:07:39.422Z,4.97
2023-03-16T11:08:42.000Z,5.63
2023-03-16T11:09:45.448Z,5.05
2023-03-16T11:10:57.776Z,5.22
2023-03-16T11:12:12.587Z,5.15
2023-03-16T11:13:17.785Z,6.10
2023-03-16T11:14:23.350Z,5.35
2023-03-16T11:15:26.680Z,4.60
2023-03-16T11:16:38.547Z,4.70
2023-03-16T11:17:53.701Z,5.40
2023-03-16T11:19:04.911Z,4.72
2023-03-16T11:20:17.587Z,5.15
2023-03-16T11:21:51.077Z,4.65
2023-03-16T11:22:53.657Z,4.82
2023-03-16T11:23:58.075Z,5.70
2023-03-16T11:25:04.331Z,5.60
2023-03-16T11:26:21.353Z,5.35
2023-03-16T11:27:43.709Z,5.32
2023-03-16T11:28:50.694Z,4.93
2023-03-16T11:30:02.368Z,4.55
2023-03-16T11:31:39.491Z,4.78
2023-03-16T11:32:47.893Z,4.45
2023-03-16T11:33:51.165Z,4.40
2023-03-16T11:34:54.043Z,4.97
2023-03-16T11:36:21.415Z,4.13
2023-03-16T11:37:23.982Z,5.18
2023-03-16T11:38:42.059Z,4.78
2023-03-16T11:40:15.600Z,4.70
2023-03-16T11:41:34.851Z,3.45
2023-03-16T11:42:39.687Z,4.25
2023-03-16T11:43:48.567Z,4.50
2023-03-16T11:45:04.172Z,4.03
2023-03-16T11:46:28.777Z,4.88
2023-03-16T11:47:40.245Z,5.22
2023-03-16T11:49:25.481Z,4.72
2023-03-16T11:50:37.801Z,5.18
2023-03-16T11:51:49.314Z,4.85
2023-03-16T11:53:18.369Z,4.38
2023-03-16T11:54:29.710Z,4.35
2023-03-16T11:55:35.140Z,4.85
2023-03-16T11:56:47.180Z,4.85
2023-03-16T11:58:28.309Z,4.95
2023-03-16T12:01:15.384Z,5.28
2023-03-16T12:02:37.161Z,4.45
2023-03-16T12:03:46.022Z,4.60
2023-03-16T12:05:26.619Z,4.40
2023-03-16T12:07:06.150Z,4.95
2023-03-16T12:08:32.965Z,4.40
2023-03-16T12:09:59.897Z,5.18
2023-03-16T12:11:02.903Z,4.90
2023-03-16T12:12:22.209Z,4.50
2023-03-16T12:13:33.841Z,4.63
2023-03-16T12:14:44.219Z,4.55
2023-03-16T12:15:51.688Z,5.05
2023-03-16T12:17:01.263Z,3.88
2023-03-16T12:18:31.565Z,4.38
2023-03-16T12:19:54.217Z,4.63
2023-03-16T12:21:05.815Z,4.35
2023-03-16T12:22:18.634Z,5.38
2023-03-16T12:23:29.940Z,4.85
2023-03-16T12:24:38.997Z,4.85
2023-03-16T12:25:46.066Z,5.18
2023-03-16T12:26:49.701Z,4.72
2023-03-16T12:27:58.080Z,4.78
2023-03-16T12:29:08.608Z,4.28
2023-03-16T12:30:30.204Z,4.03
2023-03-16T12:31:44.418Z,3.22
2023-03-16T12:33:02.244Z,3.28
2023-03-16T12:34:17.442Z,3.30
2023-03-16T12:35:31.290Z,2.80
2023-03-16T12:36:58.607Z,2.72
2023-03-16T12:38:38.414Z,3.28
2023-03-16T12:40:07.888Z,2.83
2023-03-16T12:41:52.537Z,3.15
2023-03-16T12:43:18.026Z,2.92
2023-03-16T12:44:22.844Z,3.15
2023-03-16T12:45:57.398Z,3.55
2023-03-16T12:47:31.434Z,3.13
2023-03-16T12:48:53.907Z,2.90
2023-03-16T12:50:07.348Z,3.45
2023-03-16T12:51:10.147Z,4.13
2023-03-16T12:52:14.685Z,3.53
2023-03-16T12:53:46.867Z,3.30
2023-03-16T12:54:55.032Z,3.47
2023-03-16T12:55:58.019Z,3.13
2023-03-16T12:57:08.342Z,3.40
2023-03-16T12:58:12.606Z,2.50
2023-03-16T12:59:21.061Z,3.55
2023-03-16T13:00:37.510Z,3.33
2023-03-16T13:01:43.808Z,2.55
2023-03-16T13:02:53.611Z,3.70
2023-03-16T13:04:09.714Z,3.97
2023-03-16T13:05:18.791Z,3.33
2023-03-16T13:06:24.251Z,3.08
2023-03-16T13:07:29.445Z,3.90
2023-03-16T13:08:46.922Z,4.45
2023-03-16T13:10:14.957Z,3.72
2023-03-16T13:11:17.811Z,3.90
2023-03-16T13:12:42.054Z,4.90
2023-03-16T13:14:13.597Z,4.05
2023-03-16T13:15:19.822Z,5.13
2023-03-16T13:16:29.474Z,4.30
2023-03-16T13:17:33.474Z,3.80
2023-03-16T13:18:41.851Z,3.45
2023-03-16T13:19:46.703Z,3.15
2023-03-16T13:21:00.965Z,3.33
2023-03-16T13:22:22.252Z,3.53
2023-03-16T13:23:31.354Z,3.05
2023-03-16T13:24:40.108Z,3.17
2023-03-16T13:25:44.636Z,2.90
2023-03-16T13:26:49.618Z,3.13
2023-03-16T13:27:56.240Z,2.63
2023-03-16T13:28:59.223Z,2.65
2023-03-16T13:30:13.288Z,3.58
2023-03-16T13:31:29.874Z,3.08
2023-03-16T13:32:33.609Z,2.35
2023-03-16T13:33:37.489Z,2.22
2023-03-16T13:34:51.549Z,2.28
2023-03-16T13:35:56.444Z,2.90
2023-03-16T13:37:01.536Z,2.38
2023-03-16T13:38:08.190Z,3.05
2023-03-16T13:39:17.525Z,2.30
2023-03-16T13:40:27.831Z,2.13
2023-03-16T13:41:31.438Z,2.50
2023-03-16T13:42:34.368Z,2.67
2023-03-16T13:43:39.798Z,3.25
2023-03-16T13:44:42.973Z,2.75
2023-03-16T13:45:45.876Z,2.85
2023-03-16T13:46:50.853Z,2.30
2023-03-16T13:47:53.659Z,2.65
2023-03-16T13:49:00.852Z,2.22
2023-03-16T13:50:03.626Z,2.30
2023-03-16T13:51:15.761Z,2.97
2023-03-16T13:52:26.195Z,1.90
2023-03-16T13:53:30.512Z,1.80
2023-03-16T13:54:33.276Z,2.03
2023-03-16T13:55:36.868Z,2.17
2023-03-16T13:56:40.248Z,2.53
2023-03-16T13:57:44.150Z,2.40
2023-03-16T13:58:49.258Z,2.40
2023-03-16T13:59:59.091Z,2.90
2023-03-16T14:01:04.956Z,1.45
2023-03-16T14:02:18.106Z,2.50
2023-03-16T14:03:22.454Z,2.38
2023-03-16T14:04:32.870Z,2.38
2023-03-16T14:05:36.378Z,2.85
2023-03-16T14:06:41.292Z,2.50
2023-03-16T14:07:46.789Z,2.28
2023-03-16T14:08:52.525Z,2.40
2023-03-16T14:09:58.694Z,2.30
2023-03-16T14:11:01.846Z,2.28
2023-03-16T14:12:04.765Z,2.53
2023-03-16T14:13:29.117Z,3.15
2023-03-16T14:14:39.387Z,2.90
2023-03-16T14:15:42.349Z,3.70
2023-03-16T14:16:45.854Z,3.72
2023-03-16T14:17:48.509Z,3.75
2023-03-16T14:19:19.248Z,4.15
2023-03-16T14:20:24.149Z,4.63
2023-03-16T14:21:28.761Z,4.20
2023-03-16T14:22:37.248Z,3.72
2023-03-16T14:23:45.524Z,3.70
2023-03-16T14:24:54.834Z,3.45
2023-03-16T14:25:59.667Z,3.65
2023-03-16T14:27:17.573Z,3.90
2023-03-16T14:28:23.122Z,5.03
2023-03-16T14:29:30.638Z,3.75
2023-03-16T14:30:33.180Z,4.72
2023-03-16T14:31:41.019Z,4.65
2023-03-16T14:33:01.460Z,3.67
2023-03-16T14:34:08.902Z,4.85
2023-03-16T14:35:15.369Z,4.78
2023-03-16T14:36:19.659Z,4.65
2023-03-16T14:37:22.283Z,5.32
2023-03-16T14:38:28.161Z,5.82
2023-03-16T14:39:30.648Z,4.70
2023-03-16T14:40:33.426Z,4.72
2023-03-16T14:41:36.983Z,5.38
2023-03-16T14:42:39.710Z,6.00
2023-03-16T14:44:01.769Z,4.40
2023-03-16T14:45:10.366Z,6.53
2023-03-16T14:46:21.307Z,6.00
2023-03-16T14:47:30.950Z,6.15
2023-03-16T14:48:35.474Z,5.25
2023-03-16T14:49:40.422Z,4.20
2023-03-16T14:50:44.976Z,4.20
2023-03-16T14:51:49.567Z,5.15
2023-03-16T14:52:54.289Z,4.97
2023-03-16T14:53:57.019Z,5.00
2023-03-16T14:55:03.283Z,6.18